createdAt,value
2018-12-08T00:02:55.052Z,7.93
2018-12-08T00:05:25.492Z,7.93
2018-12-08T00:07:56.389Z,7.97
2018-12-08T00:10:34.073Z,7.99
2018-12-08T00:13:04.971Z,8.02
2018-12-08T00:15:37.156Z,8.03
2018-12-08T00:18:07.676Z,8.09
2018-12-08T00:20:38.279Z,8.08
2018-12-08T00:23:08.857Z,8.08
2018-12-08T00:25:39.290Z,8.15
2018-12-08T00:28:10.420Z,8.10
2018-12-08T00:30:57.879Z,8.08
2018-12-08T00:33:28.473Z,8.00
2018-12-08T00:35:58.951Z,8.02
2018-12-08T00:38:29.392Z,8.01
2018-12-08T00:40:59.784Z,8.10
2018-12-08T00:43:30.205Z,8.05
2018-12-08T00:46:02.160Z,8.01
2018-12-08T00:48:33.483Z,7.96
2018-12-08T00:51:03.941Z,7.98
2018-12-08T00:53:34.349Z,8.05
2018-12-08T00:56:04.770Z,7.99
2018-12-08T00:58:35.213Z,8.05
2018-12-08T01:01:07.479Z,8.01
2018-12-08T01:03:38.351Z,8.01
2018-12-08T01:06:09.397Z,8.03
2018-12-08T01:08:42.072Z,8.04
2018-12-08T01:11:12.535Z,7.92
2018-12-08T01:13:42.947Z,7.98
2018-12-08T01:16:13.326Z,7.95
2018-12-08T01:18:45.240Z,7.91
2018-12-08T01:21:16.358Z,7.93
2018-12-08T01:26:35.918Z,7.87
2018-12-08T01:29:06.618Z,7.95
2018-12-08T01:31:37.263Z,8.00
2018-12-08T01:34:08.916Z,7.90
2018-12-08T01:36:40.790Z,7.88
2018-12-08T01:39:11.291Z,7.93
2018-12-08T01:41:41.782Z,7.90
2018-12-08T01:44:13.731Z,7.80
2018-12-08T01:46:44.693Z,7.82
2018-12-08T01:49:15.666Z,7.51
2018-12-08T01:51:47.501Z,7.52
2018-12-08T01:54:17.908Z,7.03
2018-12-08T01:56:48.382Z,6.50
2018-12-08T01:59:18.823Z,6.57
2018-12-08T02:01:49.280Z,6.74
2018-12-08T02:04:20.427Z,6.80
2018-12-08T02:06:52.235Z,6.78
2018-12-08T02:09:25.119Z,6.92
2018-12-08T02:11:56.999Z,6.83
2018-12-08T02:14:29.070Z,6.93
2018-12-08T02:16:59.779Z,6.93
2018-12-08T02:19:30.563Z,6.99
2018-12-08T02:22:01.321Z,6.95
2018-12-08T02:24:31.826Z,7.00
2018-12-08T02:27:05.559Z,7.04
2018-12-08T02:29:36.057Z,6.99
2018-12-08T02:32:07.449Z,6.94
2018-12-08T02:34:39.154Z,6.92
2018-12-08T02:37:11.370Z,6.93
2018-12-08T02:39:42.217Z,6.91
2018-12-08T02:42:13.572Z,6.90
2018-12-08T02:45:14.401Z,6.90
2018-12-08T02:47:55.260Z,6.96
2018-12-08T02:53:56.480Z,6.93
2018-12-08T02:56:36.763Z,6.96
2018-12-08T02:59:19.388Z,6.96
2018-12-08T03:02:03.913Z,6.93
2018-12-08T03:08:09.454Z,6.76
2018-12-08T03:10:45.946Z,6.74
2018-12-08T03:13:16.465Z,6.75
2018-12-08T03:16:05.973Z,6.76
2018-12-08T03:18:37.960Z,6.71
2018-12-08T03:21:08.644Z,6.61
2018-12-08T03:23:40.049Z,6.64
2018-12-08T03:26:10.472Z,6.65
2018-12-08T03:28:40.919Z,6.53
2018-12-08T03:31:13.165Z,6.59
2018-12-08T03:33:45.154Z,6.60
2018-12-08T03:36:17.601Z,6.66
2018-12-08T03:38:49.272Z,6.72
2018-12-08T03:44:27.116Z,6.62
2018-12-08T03:46:58.053Z,6.58
2018-12-08T03:49:28.732Z,6.60
2018-12-08T03:51:59.053Z,6.59
2018-12-08T03:54:29.787Z,6.53
2018-12-08T03:56:59.909Z,6.48
2018-12-08T03:59:30.362Z,6.41
2018-12-08T04:02:00.799Z,6.53
2018-12-08T04:04:31.358Z,6.46
2018-12-08T04:07:01.671Z,6.51
2018-12-08T04:09:32.339Z,6.43
2018-12-08T04:12:03.006Z,6.42
2018-12-08T04:14:33.585Z,6.44
2018-12-08T04:17:05.912Z,6.46
2018-12-08T04:19:36.522Z,6.46
2018-12-08T04:22:23.254Z,6.42
2018-12-08T04:24:56.888Z,6.52
2018-12-08T04:27:31.435Z,6.51
2018-12-08T04:30:02.570Z,6.60
2018-12-08T04:32:34.065Z,6.73
2018-12-08T04:35:07.570Z,6.64
2018-12-08T04:37:37.937Z,6.67
2018-12-08T04:40:09.755Z,6.62
2018-12-08T04:42:46.293Z,6.60
2018-12-08T04:45:16.729Z,6.60
2018-12-08T04:47:48.892Z,6.53
2018-12-08T04:50:19.483Z,6.58
2018-12-08T04:52:50.692Z,6.44
2018-12-08T04:55:21.779Z,6.42
2018-12-08T04:57:52.207Z,6.36
2018-12-08T05:00:23.070Z,6.34
2018-12-08T05:02:53.991Z,6.24
2018-12-08T05:05:24.907Z,6.25
2018-12-08T05:07:57.068Z,6.21
2018-12-08T05:10:29.373Z,6.18
2018-12-08T05:12:59.968Z,6.20
2018-12-08T05:15:31.795Z,6.19
2018-12-08T05:18:02.182Z,6.20
2018-12-08T05:20:33.057Z,6.20
2018-12-08T05:23:04.067Z,6.25
2018-12-08T05:25:35.386Z,6.25
2018-12-08T05:28:05.775Z,6.29
2018-12-08T05:30:36.378Z,6.30
2018-12-08T05:33:06.762Z,6.24
2018-12-08T05:35:47.308Z,6.25
2018-12-08T05:38:21.455Z,6.23
2018-12-08T05:41:18.541Z,6.23
2018-12-08T05:43:50.526Z,6.28
2018-12-08T05:49:31.194Z,6.40
2018-12-08T05:52:06.999Z,6.36
2018-12-08T05:54:49.820Z,6.40
2018-12-08T05:57:27.152Z,6.39
2018-12-08T06:00:03.819Z,6.36
2018-12-08T06:02:40.281Z,6.41
2018-12-08T06:05:10.948Z,6.40
2018-12-08T06:07:58.782Z,6.43
2018-12-08T06:10:35.492Z,6.51
2018-12-08T06:16:19.311Z,6.46
2018-12-08T06:18:54.893Z,6.40
2018-12-08T06:21:39.108Z,6.39
2018-12-08T06:24:15.375Z,6.44
2018-12-08T06:27:10.788Z,6.37
2018-12-08T06:29:47.723Z,6.35
2018-12-08T06:32:24.074Z,6.42
2018-12-08T06:35:01.146Z,6.42
2018-12-08T06:37:39.690Z,6.42
2018-12-08T06:40:29.186Z,6.39
2018-12-08T06:43:17.259Z,6.42
2018-12-08T06:45:54.684Z,6.44
2018-12-08T06:48:44.764Z,6.46
2018-12-08T06:51:25.107Z,6.48
2018-12-08T06:54:01.457Z,6.42
2018-12-08T06:56:45.265Z,6.43
2018-12-08T06:59:28.429Z,6.48
2018-12-08T07:02:04.206Z,6.47
2018-12-08T07:04:47.545Z,6.52
2018-12-08T07:07:24.712Z,6.45
2018-12-08T07:10:10.349Z,6.52
2018-12-08T07:13:05.565Z,6.50
2018-12-08T07:15:45.191Z,6.51
2018-12-08T07:21:39.670Z,6.66
2018-12-08T07:27:21.283Z,6.76
2018-12-08T07:29:52.264Z,6.77
2018-12-08T07:38:37.502Z,6.88
2018-12-08T07:41:08.163Z,6.95
2018-12-08T07:43:54.883Z,6.96
2018-12-08T07:46:31.778Z,6.97
2018-12-08T07:49:13.152Z,7.01
2018-12-08T07:52:02.801Z,7.08
2018-12-08T08:01:02.423Z,7.24
2018-12-08T08:03:38.409Z,7.29
2018-12-08T08:06:29.777Z,7.28
2018-12-08T08:09:06.676Z,7.21
2018-12-08T08:11:42.229Z,7.25
2018-12-08T08:14:20.535Z,7.21
2018-12-08T08:20:02.008Z,7.30
2018-12-08T08:22:49.020Z,7.32
2018-12-08T08:32:10.353Z,7.50
2018-12-08T08:34:49.429Z,7.54
2018-12-08T08:37:27.229Z,7.62
2018-12-08T08:43:13.620Z,7.63
2018-12-08T08:45:56.496Z,7.65
2018-12-08T08:48:32.669Z,7.66
2018-12-08T08:51:04.531Z,7.61
2018-12-08T08:53:41.568Z,7.68
2018-12-08T08:56:16.221Z,7.70
2018-12-08T08:58:52.184Z,7.73
2018-12-08T09:01:30.524Z,7.69
2018-12-08T09:04:11.242Z,7.78
2018-12-08T09:06:54.073Z,7.76
2018-12-08T09:09:30.498Z,7.82
2018-12-08T09:12:07.505Z,7.81
2018-12-08T09:14:44.319Z,7.82
2018-12-08T09:17:21.397Z,7.88
2018-12-08T09:19:56.053Z,7.94
2018-12-08T09:22:35.130Z,7.98
2018-12-08T09:25:12.189Z,8.01
2018-12-08T09:27:50.026Z,7.99
2018-12-08T09:30:28.343Z,8.03
2018-12-08T09:33:04.718Z,7.99
2018-12-08T09:35:47.201Z,8.00
2018-12-08T09:38:23.842Z,8.01
2018-12-08T09:40:57.873Z,7.98
2018-12-08T09:43:33.218Z,7.95
2018-12-08T09:46:18.638Z,7.96
2018-12-08T09:48:53.441Z,7.92
2018-12-08T09:51:31.110Z,7.97
2018-12-08T09:54:03.686Z,7.96
2018-12-08T09:56:51.392Z,7.92
2018-12-08T09:59:34.087Z,7.90
2018-12-08T10:02:18.814Z,7.85
2018-12-08T10:04:55.666Z,7.89
2018-12-08T10:10:34.902Z,7.82
2018-12-08T10:13:12.690Z,7.71
2018-12-08T10:19:57.414Z,7.67
2018-12-08T10:22:40.212Z,7.70
2018-12-08T10:25:20.758Z,7.67
2018-12-08T10:27:58.475Z,7.62
2018-12-08T10:30:36.414Z,7.61
2018-12-08T10:33:13.213Z,7.62
2018-12-08T10:35:50.203Z,7.62
2018-12-08T10:38:27.064Z,7.60
2018-12-08T10:41:06.320Z,7.68
2018-12-08T10:43:48.988Z,7.67
2018-12-08T10:46:33.532Z,7.69
2018-12-08T10:49:08.792Z,7.66
2018-12-08T10:51:43.146Z,7.67
2018-12-08T10:54:24.880Z,7.68
2018-12-08T10:56:59.939Z,7.68
2018-12-08T10:59:36.928Z,7.69
2018-12-08T11:02:29.334Z,7.66
2018-12-08T11:05:08.018Z,7.66
2018-12-08T11:07:44.691Z,7.68
2018-12-08T11:10:23.302Z,7.63
2018-12-08T11:12:58.527Z,7.71
2018-12-08T11:15:35.825Z,7.70
2018-12-08T11:18:11.791Z,7.79
2018-12-08T11:20:46.016Z,7.79
2018-12-08T11:23:23.131Z,7.89
2018-12-08T11:26:02.826Z,7.84
2018-12-08T11:28:37.349Z,7.74
2018-12-08T11:31:15.498Z,7.79
2018-12-08T11:33:52.533Z,7.84
2018-12-08T11:36:32.829Z,7.92
2018-12-08T11:39:19.567Z,7.93
2018-12-08T11:41:56.807Z,7.97
2018-12-08T11:44:32.941Z,8.05
2018-12-08T11:47:11.363Z,8.07
2018-12-08T11:49:43.382Z,8.17
2018-12-08T11:52:20.552Z,8.20
2018-12-08T11:54:57.278Z,8.23
2018-12-08T11:57:34.901Z,8.26
2018-12-08T12:00:19.282Z,8.28
2018-12-08T12:02:56.120Z,8.25
2018-12-08T12:05:32.385Z,8.34
2018-12-08T12:08:09.382Z,8.35
2018-12-08T12:10:47.353Z,8.36
2018-12-08T12:13:22.155Z,8.38
2018-12-08T12:16:04.808Z,8.30
2018-12-08T12:18:42.297Z,8.31
2018-12-08T12:21:16.576Z,8.30
2018-12-08T12:23:53.394Z,8.34
2018-12-08T12:26:30.633Z,8.42
2018-12-08T12:29:18.150Z,8.52
2018-12-08T12:31:55.966Z,8.55
2018-12-08T12:34:33.165Z,8.53
2018-12-08T12:37:09.605Z,8.52
2018-12-08T12:39:47.361Z,8.52
2018-12-08T12:42:28.228Z,8.55
2018-12-08T12:45:09.354Z,8.46
2018-12-08T12:47:54.018Z,8.46
2018-12-08T12:50:31.201Z,8.54
2018-12-08T12:53:11.201Z,8.51
2018-12-08T12:55:47.948Z,8.56
2018-12-08T12:58:29.854Z,8.55
2018-12-08T13:01:11.887Z,8.52
2018-12-08T13:03:48.216Z,8.54
2018-12-08T13:06:27.491Z,8.53
2018-12-08T13:09:03.717Z,8.51
2018-12-08T13:11:44.487Z,8.51
2018-12-08T13:14:20.728Z,8.51
2018-12-08T13:16:58.223Z,8.52
2018-12-08T13:19:32.761Z,8.55
2018-12-08T13:22:13.774Z,8.55
2018-12-08T13:24:50.906Z,8.55
2018-12-08T13:27:46.053Z,8.57
2018-12-08T13:30:23.617Z,8.59
2018-12-08T13:32:58.515Z,8.66
2018-12-08T13:36:00.270Z,8.65
2018-12-08T13:41:58.494Z,8.78
2018-12-08T13:44:38.589Z,8.78
2018-12-08T13:47:18.487Z,8.77
2018-12-08T13:49:54.702Z,8.80
2018-12-08T13:52:29.153Z,8.82
2018-12-08T13:55:03.625Z,8.83
2018-12-08T13:57:50.453Z,8.83
2018-12-08T14:00:30.066Z,8.86
2018-12-08T14:06:42.912Z,8.79
2018-12-08T14:09:21.406Z,8.81
2018-12-08T14:12:06.727Z,8.77
2018-12-08T14:14:44.060Z,8.73
2018-12-08T14:17:24.920Z,8.75
2018-12-08T14:20:12.705Z,8.70
2018-12-08T14:22:56.747Z,8.71
2018-12-08T14:34:50.312Z,8.78
2018-12-08T14:37:30.593Z,8.82
2018-12-08T14:40:11.220Z,8.76
2018-12-08T14:42:46.650Z,8.77
2018-12-08T14:45:25.096Z,8.80
2018-12-08T14:48:09.286Z,8.81
2018-12-08T15:23:17.182Z,8.95
2018-12-08T15:26:00.548Z,9.01
2018-12-08T15:28:45.609Z,9.03
2018-12-08T15:31:23.109Z,9.01
2018-12-08T15:34:06.737Z,8.99
2018-12-08T15:36:48.013Z,9.00
2018-12-08T15:39:31.346Z,9.05
2018-12-08T15:42:09.409Z,9.04
2018-12-08T15:44:49.002Z,9.08
2018-12-08T15:47:32.668Z,9.14
2018-12-08T15:50:13.761Z,9.10
2018-12-08T15:52:53.280Z,9.09
2018-12-08T15:55:28.056Z,9.00
2018-12-08T15:58:15.209Z,9.01
2018-12-08T16:04:04.689Z,9.10
2018-12-08T16:06:45.698Z,9.10
2018-12-08T16:09:21.941Z,9.09
2018-12-08T16:12:02.952Z,8.99
2018-12-08T16:14:40.123Z,8.93
2018-12-08T16:17:17.213Z,8.90
2018-12-08T16:19:54.665Z,8.96
2018-12-08T16:22:54.656Z,8.88
2018-12-08T16:25:33.492Z,8.77
2018-12-08T16:28:13.342Z,8.74
2018-12-08T16:30:51.491Z,8.65
2018-12-08T16:33:29.903Z,8.61
2018-12-08T16:36:06.796Z,8.54
2018-12-08T16:38:47.534Z,8.58
2018-12-08T16:41:31.687Z,8.66
2018-12-08T16:44:09.618Z,8.63
2018-12-08T16:46:44.449Z,8.63
2018-12-08T16:49:24.760Z,8.63
2018-12-08T16:52:06.814Z,8.62
2018-12-08T16:54:48.388Z,8.62
2018-12-08T16:57:28.124Z,8.62
2018-12-08T17:00:06.299Z,8.68
2018-12-08T17:02:40.788Z,8.53
2018-12-08T17:05:22.709Z,8.56
2018-12-08T17:08:03.549Z,8.67
2018-12-08T17:10:40.029Z,8.65
2018-12-08T17:13:20.735Z,8.63
2018-12-08T17:16:10.405Z,8.59
2018-12-08T17:18:51.557Z,8.59
2018-12-08T17:21:47.359Z,8.65
2018-12-08T17:24:25.150Z,8.65
2018-12-08T17:27:10.018Z,8.63
2018-12-08T17:29:44.812Z,8.50
2018-12-08T17:32:22.362Z,8.45
2018-12-08T17:35:03.968Z,8.44
2018-12-08T17:37:40.511Z,8.47
2018-12-08T17:40:20.565Z,8.49
2018-12-08T17:42:57.809Z,8.43
2018-12-08T17:45:32.681Z,8.59
2018-12-08T17:48:10.527Z,8.56
2018-12-08T17:50:53.581Z,8.61
2018-12-08T17:53:32.458Z,8.62
2018-12-08T17:56:14.139Z,8.66
2018-12-08T17:59:02.235Z,8.67
2018-12-08T18:01:51.254Z,8.61
2018-12-08T18:04:35.623Z,8.68
2018-12-08T18:07:25.485Z,8.61
2018-12-08T18:10:06.087Z,8.67
2018-12-08T18:12:44.235Z,8.67
2018-12-08T18:15:34.439Z,8.69
2018-12-08T18:18:18.920Z,8.65
2018-12-08T18:20:56.332Z,8.66
2018-12-08T18:27:03.351Z,8.65
2018-12-08T18:29:56.252Z,8.67
2018-12-08T18:32:37.126Z,8.65
2018-12-08T18:35:20.589Z,8.64
2018-12-08T18:37:57.870Z,8.63
2018-12-08T18:40:35.927Z,8.54
2018-12-08T18:43:26.475Z,8.54
2018-12-08T18:46:04.531Z,8.53
2018-12-08T18:48:45.138Z,8.54
2018-12-08T18:51:40.782Z,8.63
2018-12-08T18:54:23.542Z,8.52
2018-12-08T18:57:13.129Z,8.69
2018-12-08T18:59:53.970Z,8.56
2018-12-08T19:02:35.623Z,8.48
2018-12-08T19:05:14.738Z,8.53
2018-12-08T19:08:03.410Z,8.53
2018-12-08T19:10:48.927Z,8.45
2018-12-08T19:16:38.133Z,8.46
2018-12-08T19:19:24.018Z,8.49
2018-12-08T19:22:00.993Z,8.51
2018-12-08T19:24:44.811Z,8.53
2018-12-08T19:27:26.620Z,8.59
2018-12-08T19:30:09.464Z,8.62
2018-12-08T19:35:23.136Z,8.57
2018-12-08T19:38:03.710Z,8.60
2018-12-08T19:40:45.536Z,8.60
2018-12-08T19:43:28.886Z,8.60
2018-12-08T19:46:24.268Z,8.54
2018-12-08T19:49:02.785Z,8.33
2018-12-08T19:51:42.038Z,8.27
2018-12-08T19:54:20.347Z,8.22
2018-12-08T19:57:01.062Z,8.25
2018-12-08T19:59:43.471Z,8.34
2018-12-08T20:02:26.429Z,8.36
2018-12-08T20:05:05.914Z,8.32
2018-12-08T20:07:47.578Z,8.33
2018-12-08T20:10:37.219Z,8.33
2018-12-08T20:13:16.366Z,8.33
2018-12-08T20:15:56.894Z,8.31
2018-12-08T20:18:35.576Z,8.35
2018-12-08T20:21:23.408Z,8.31
2018-12-08T20:24:02.808Z,8.28
2018-12-08T20:26:46.125Z,8.32
2018-12-08T20:29:39.568Z,8.29
2018-12-08T20:32:22.488Z,8.30
2018-12-08T20:35:09.954Z,8.32
2018-12-08T20:37:50.301Z,8.34
2018-12-08T20:45:31.096Z,8.40
2018-12-08T20:48:03.776Z,8.44
2018-12-08T20:50:43.787Z,8.40
2018-12-08T20:53:24.292Z,8.41
2018-12-08T20:56:07.940Z,8.34
2018-12-08T20:58:52.702Z,8.29
2018-12-08T21:01:24.733Z,8.30
2018-12-08T21:04:08.892Z,8.28
2018-12-08T21:06:55.138Z,8.24
2018-12-08T21:09:35.758Z,8.18
2018-12-08T21:12:19.721Z,8.20
2018-12-08T21:15:11.658Z,8.26
2018-12-08T21:17:58.919Z,8.21
2018-12-08T21:20:36.346Z,8.18
2018-12-08T21:23:21.853Z,8.14
2018-12-08T21:25:59.262Z,8.15
2018-12-08T21:28:35.604Z,8.15
2018-12-08T21:31:25.617Z,8.07
2018-12-08T21:34:03.219Z,8.12
2018-12-08T21:36:48.024Z,8.01
2018-12-08T21:39:35.816Z,8.04
2018-12-08T21:42:18.804Z,8.02
2018-12-08T21:44:55.323Z,8.01
2018-12-08T21:47:30.863Z,8.04
2018-12-08T21:50:10.175Z,8.01
2018-12-08T21:52:52.247Z,8.08
2018-12-08T21:55:30.961Z,7.97
2018-12-08T21:58:07.860Z,8.01
2018-12-08T22:00:42.808Z,8.11
2018-12-08T22:03:20.386Z,8.11
2018-12-08T22:05:58.465Z,8.06
2018-12-08T22:08:36.769Z,8.05
2018-12-08T22:11:13.796Z,8.01
2018-12-08T22:13:54.452Z,8.04
2018-12-08T22:16:33.576Z,7.98
2018-12-08T22:19:11.893Z,8.00
2018-12-08T22:21:51.555Z,8.01
2018-12-08T22:30:40.336Z,8.16
2018-12-08T22:33:18.582Z,8.14
2018-12-08T22:39:42.959Z,8.15
2018-12-08T22:42:26.071Z,8.08
2018-12-08T22:45:01.375Z,8.14
2018-12-08T22:47:41.093Z,8.16
2018-12-08T22:50:25.342Z,8.18
2018-12-08T22:53:08.813Z,8.18
2018-12-08T22:55:55.865Z,8.23
2018-12-08T22:58:32.298Z,8.15
2018-12-08T23:01:12.708Z,8.12
2018-12-08T23:03:58.193Z,8.07
2018-12-08T23:06:50.659Z,8.07
2018-12-08T23:09:28.102Z,8.02
2018-12-08T23:12:04.665Z,8.01
2018-12-08T23:14:41.350Z,7.97
2018-12-08T23:17:21.420Z,8.00
2018-12-08T23:19:59.106Z,8.03
2018-12-08T23:22:36.338Z,8.06
2018-12-08T23:25:12.441Z,7.96
2018-12-08T23:27:44.689Z,7.99
2018-12-08T23:30:18.678Z,8.00
2018-12-08T23:32:55.190Z,7.98
2018-12-08T23:35:33.737Z,7.91
2018-12-08T23:38:17.970Z,7.86
2018-12-08T23:40:55.186Z,7.90
2018-12-08T23:43:33.495Z,7.93
2018-12-08T23:46:11.360Z,7.93
2018-12-08T23:49:24.405Z,7.95
2018-12-08T23:51:59.460Z,7.98
2018-12-08T23:54:35.615Z,7.90
2018-12-08T23:57:09.094Z,7.75
2018-12-08T23:59:47.150Z,7.75
